Latest Weather Observations for Merimbula

IDN60801

Issued at 5:32 pm EDT Saturday 25 February 2017 (issued every 30 minutes, with the page automatically refreshed every 10 minutes)

About weather observations | Map of weather stations | Latest weather observations for NSW | Other Formats
Station Details ID: 069147 Name: MERIMBULA AIRPORT AWS Lat: -36.91 Lon: 149.90 Height: 1.5 m
Data from the previous 72 hours. | See also: Recent months at Merimbula
Date/Time
EDT
Temp
°C
App
Temp
°C
Dew
Point
°C
Rel
Hum
%
Delta-T
°C
Wind Press
QNH
hPa
Press
MSL
hPa
Rain since
9am
mm
Dir  Spd
km/h
Gust
km/h
Spd
kts
Gust
kts
25/05:30pm 19.0 19.3 14.9 77 2.4 SSE 7 13 4 7 1022.7 1022.7 0.0
25/05:00pm 18.4 19.8 14.3 77 2.4 CALM 0 0 0 0 1022.7 1022.7 0.0
25/04:30pm 18.8 18.8 14.3 75 2.6 WSW 7 11 4 6 1022.9 1022.9 0.0
25/04:00pm 18.9 19.2 14.4 75 2.6 SSW 6 13 3 7 1022.8 1022.8 0.0
25/03:30pm 18.8 18.0 14.1 74 2.7 SSE 11 17 6 9 1023.0 1023.0 0.0
25/03:00pm 19.4 17.8 14.9 75 2.6 SSE 17 24 9 13 1023.1 1023.1 0.0
25/02:30pm 19.7 17.5 14.3 71 3.1 SSE 19 24 10 13 1023.4 1023.4 0.0
25/02:00pm 19.5 19.2 14.5 73 2.9 NNW 9 13 5 7 1023.5 1023.5 0.0
25/01:30pm 18.2 18.0 13.7 75 2.6 W 7 13 4 7 1023.8 1023.8 0.0
25/01:00pm 19.0 17.1 13.0 68 3.4 S 15 26 8 14 1023.9 1023.9 0.0
25/12:30pm 20.3 19.0 12.5 61 4.4 SSE 11 20 6 11 1023.6 1023.6 0.0
25/12:00pm 19.9 18.7 12.7 63 4.0 SSW 11 19 6 10 1023.7 1023.7 0.0
25/11:30am 20.3 18.2 11.2 56 5.0 S 13 17 7 9 1023.7 1023.7 0.0
25/11:00am 20.6 19.3 11.2 55 5.1 SSW 9 15 5 8 1023.6 1023.6 0.0
25/10:30am 20.9 19.1 10.7 52 5.6 SW 11 20 6 11 1023.5 1023.5 0.0
25/10:00am 20.9 18.8 11.0 53 5.4 SW 13 19 7 10 1023.6 1023.6 0.0
25/09:30am 19.9 18.3 10.3 54 5.2 SW 9 15 5 8 1023.5 1023.5 0.0
25/09:00am 18.3 17.3 10.9 62 4.0 SSW 7 9 4 5 1023.3 1023.3 0.0
25/08:30am 17.9 16.3 10.3 61 4.1 W 9 11 5 6 1023.1 1023.1 0.0
25/08:00am 17.3 16.1 10.4 64 3.7 WNW 7 11 4 6 1022.9 1022.9 0.0
25/07:30am 15.0 14.2 11.0 77 2.1 SW 6 7 3 4 1022.9 1022.9 0.0
25/07:00am 14.1 12.9 10.3 78 2.0 SW 7 9 4 5 1022.8 1022.8 0.0
25/06:30am 14.6 12.8 9.6 72 2.6 WSW 9 13 5 7 1022.6 1022.6 0.0
25/06:00am 14.5 12.0 9.7 73 2.5 W 13 19 7 10 1022.5 1022.5 0.0
25/05:30am 12.4 10.7 10.0 85 1.2 W 9 13 5 7 1022.5 1022.5 0.0
25/05:00am 11.9 11.7 9.1 83 1.4 CALM 0 0 0 0 1022.6 1022.6 0.0
25/04:30am 12.1 12.1 9.7 85 1.2 CALM 0 0 0 0 1022.6 1022.6 0.0
25/04:00am 11.7 11.5 9.1 84 1.3 CALM 0 0 0 0 1022.5 1022.5 0.0
25/03:30am 11.6 11.3 8.5 81 1.5 CALM 0 0 0 0 1022.4 1022.4 0.0
25/03:00am 12.6 11.2 8.9 78 1.8 SSW 6 7 3 4 1022.5 1022.5 0.0
25/02:30am 13.3 11.9 9.0 75 2.2 SW 6 9 3 5 1022.5 1022.5 0.0
25/02:00am 13.8 12.1 8.2 69 2.8 SSW 7 9 4 5 1022.7 1022.7 0.0
25/01:30am 14.9 12.9 8.6 66 3.2 SSW 9 13 5 7 1022.9 1022.9 0.0
25/01:00am 15.2 13.3 8.9 66 3.2 SSW 9 15 5 8 1023.1 1023.1 0.0
25/12:30am 16.1 13.7 8.8 62 3.7 SSW 11 17 6 9 1023.4 1023.4 0.0
25/12:00am 16.7 14.0 8.9 60 4.0 S 13 20 7 11 1023.4 1023.4 0.0
 
Date/Time
EDT
Temp
°C
App
Temp
°C
Dew
Point
°C
Rel
Hum
%
Delta-T
°C
Wind Press
QNH
hPa
Press
MSL
hPa
Rain since
9am
mm
Dir  Spd
km/h
Gust
km/h
Spd
kts
Gust
kts
24/11:30pm 17.1 13.7 9.0 59 4.2 SSW 17 28 9 15 1023.5 1023.5 0.0
24/11:00pm 17.2 14.4 9.9 62 3.8 SSW 15 22 8 12 1023.6 1023.6 0.0
24/10:30pm 17.7 15.4 10.6 63 3.8 SSW 13 20 7 11 1023.6 1023.6 0.0
24/10:00pm 17.8 15.6 10.9 64 3.7 SSW 13 22 7 12 1023.7 1023.7 0.0
24/09:30pm 17.9 14.9 10.8 63 3.8 SSW 17 26 9 14 1023.7 1023.7 0.0
24/09:00pm 18.1 16.1 11.4 65 3.6 SSW 13 20 7 11 1023.4 1023.4 0.0
24/08:30pm 18.3 15.6 11.6 65 3.7 SSW 17 24 9 13 1023.0 1023.0 0.0
24/08:00pm 18.5 16.2 11.8 65 3.7 SSW 15 24 8 13 1022.7 1022.7 0.0
24/07:30pm 18.9 16.9 12.6 67 3.5 SSW 15 28 8 15 1022.2 1022.2 0.0
24/07:00pm 19.2 16.9 12.9 67 3.5 SSW 17 26 9 14 1021.8 1021.8 0.0
24/06:30pm 19.6 16.8 13.1 66 3.7 SSW 20 35 11 19 1021.4 1021.4 0.0
24/06:00pm 20.1 17.4 13.6 66 3.7 SSW 20 30 11 16 1021.0 1021.0 0.0
24/05:30pm 20.9 18.5 13.8 64 4.1 S 19 28 10 15 1020.7 1020.7 0.0
24/05:00pm 21.3 18.9 14.5 65 4.0 S 20 32 11 17 1020.4 1020.4 0.0
24/04:30pm 21.6 19.1 15.2 67 3.8 SE 22 32 12 17 1020.1 1020.1 0.0
24/04:00pm 20.6 18.0 16.0 75 2.7 SE 24 37 13 20 1020.2 1020.2 0.0
24/03:30pm 21.2 18.7 16.2 73 3.0 SE 24 37 13 20 1020.3 1020.3 0.0
24/03:00pm 22.6 21.0 16.4 68 3.8 SE 20 32 11 17 1020.5 1020.5 0.0
24/02:30pm 22.7 21.2 16.7 69 3.7 SE 20 30 11 16 1020.8 1020.8 0.0
24/02:00pm 23.3 22.0 16.8 67 4.0 ESE 19 26 10 14 1021.1 1021.1 0.0
24/01:30pm 23.1 22.2 16.9 68 3.8 E 17 28 9 15 1021.1 1021.1 0.0
24/01:00pm 22.2 21.8 16.2 69 3.6 E 13 22 7 12 1021.3 1021.3 0.0
24/12:30pm 22.6 22.1 15.9 66 4.0 ESE 13 20 7 11 1021.4 1021.4 0.0
24/12:00pm 23.3 22.8 15.9 63 4.5 ESE 13 22 7 12 1021.7 1021.7 0.0
24/11:30am 22.9 22.2 15.5 63 4.4 E 13 20 7 11 1021.8 1021.8 0.0
24/11:00am 22.3 22.0 15.4 65 4.1 E 11 15 6 8 1022.0 1022.0 0.0
24/10:30am 21.8 22.0 14.2 62 4.4 ESE 6 9 3 5 1022.0 1022.0 0.0
24/10:00am 20.9 21.7 13.8 64 4.1 SSE 2 9 1 5 1022.1 1022.1 0.0
24/09:30am 20.2 20.3 13.9 67 3.6 SSW 6 7 3 4 1022.2 1022.2 0.0
24/09:00am 19.9 20.4 14.0 69 3.4 SSW 4 9 2 5 1022.0 1022.0 0.0
24/08:30am 19.6 20.1 14.0 70 3.2 S 4 11 2 6 1021.8 1021.8 0.0
24/08:00am 19.0 20.2 13.8 72 3.0 CALM 0 0 0 0 1021.9 1021.9 0.0
24/07:30am 18.8 20.3 14.7 77 2.4 CALM 0 0 0 0 1021.6 1021.6 0.0
24/07:00am 18.6 19.5 14.1 75 2.6 SSE 2 7 1 4 1021.5 1021.5 0.0
24/06:30am 18.7 18.6 13.8 73 2.8 SSE 7 9 4 5 1021.3 1021.3 0.0
24/06:00am 18.6 19.8 13.9 74 2.7 CALM 0 0 0 0 1020.9 1020.9 0.0
24/05:30am 18.9 20.2 14.2 74 2.7 CALM 0 6 0 3 1020.8 1020.8 0.0
24/05:00am 19.0 19.3 14.5 75 2.6 SE 6 11 3 6 1020.8 1020.8 0.0
24/04:30am 18.6 19.8 13.7 73 2.8 CALM 0 0 0 0 1020.7 1020.7 0.0
24/04:00am 18.9 20.2 14.0 73 2.8 CALM 0 0 0 0 1020.7 1020.7 0.0
24/03:30am 18.8 20.1 14.1 74 2.7 CALM 0 0 0 0 1020.6 1020.6 0.0
24/03:00am 18.9 20.1 13.7 72 3.0 CALM 0 0 0 0 1020.6 1020.6 0.0
24/02:30am 19.1 20.3 13.9 72 3.0 CALM 0 0 0 0 1020.7 1020.7 0.0
24/02:00am 19.2 20.5 14.0 72 3.0 CALM 0 0 0 0 1020.8 1020.8 0.0
24/01:30am 19.1 20.3 13.7 71 3.1 CALM 0 0 0 0 1021.0 1021.0 0.0
24/01:00am 19.3 20.6 14.1 72 3.0 CALM 0 0 0 0 1020.9 1020.9 0.0
24/12:30am 19.5 19.2 13.4 68 3.5 S 7 11 4 6 1020.9 1020.9 0.0
24/12:00am 19.5 19.0 13.7 69 3.3 S 9 15 5 8 1020.9 1020.9 0.0
 
Date/Time
EDT
Temp
°C
App
Temp
°C
Dew
Point
°C
Rel
Hum
%
Delta-T
°C
Wind Press
QNH
hPa
Press
MSL
hPa
Rain since
9am
mm
Dir  Spd
km/h
Gust
km/h
Spd
kts
Gust
kts
23/11:30pm 19.2 19.7 14.0 72 3.0 S 4 11 2 6 1020.7 1020.7 0.0
23/11:00pm 18.2 19.6 14.5 79 2.1 CALM 0 0 0 0 1020.8 1020.8 0.0
23/10:30pm 17.4 18.3 13.9 80 2.0 SSW 2 9 1 5 1020.7 1020.7 0.0
23/10:00pm 17.7 17.8 14.0 79 2.1 SW 6 9 3 5 1020.6 1020.6 0.0
23/09:30pm 18.4 19.6 13.9 75 2.6 CALM 0 0 0 0 1020.3 1020.3 0.0
23/09:00pm 19.9 20.1 14.7 72 3.0 S 7 11 4 6 1020.0 1020.0 0.0
23/08:30pm 20.3 19.7 14.7 70 3.3 S 11 17 6 9 1019.4 1019.4 0.0
23/08:00pm 20.8 19.0 15.6 72 3.1 SSE 19 32 10 17 1018.8 1018.8 0.0
23/07:30pm 21.2 19.3 15.7 71 3.3 SSE 20 35 11 19 1018.4 1018.4 0.0
23/07:00pm 21.4 19.6 15.9 71 3.3 SE 20 28 11 15 1018.1 1018.1 0.0
23/06:30pm 21.8 19.5 15.6 68 3.7 SE 22 35 12 19 1017.7 1017.7 0.0
23/06:00pm 23.1 21.0 16.2 65 4.2 SE 22 32 12 17 1017.2 1017.2 0.0
23/05:30pm 23.6 21.4 15.9 62 4.7 SE 22 32 12 17 1016.9 1016.9 0.0
23/05:00pm 24.0 21.4 15.8 60 5.0 SE 24 43 13 23 1016.4 1016.4 0.0
23/04:30pm 24.6 21.6 14.7 54 5.9 SE 24 35 13 19 1015.9 1015.9 0.0
23/04:00pm 24.9 22.7 16.9 61 4.9 SSE 24 33 13 18 1015.7 1015.7 0.0
23/03:30pm 24.7 23.1 17.4 64 4.5 SE 22 35 12 19 1015.5 1015.5 0.0
23/03:00pm 25.4 24.5 19.1 68 4.0 SE 22 39 12 21 1015.4 1015.4 0.0
23/02:30pm 26.2 25.3 19.8 68 4.1 SE 24 37 13 20 1015.2 1015.2 0.0
23/02:00pm 26.2 25.6 19.8 68 4.1 SE 22 30 12 16 1014.6 1014.6 0.0
23/01:30pm 27.2 26.4 18.5 59 5.6 E 20 32 11 17 1014.5 1014.5 0.0
23/01:00pm 28.0 27.3 18.7 57 6.0 ENE 20 26 11 14 1014.4 1014.4 0.0
23/12:30pm 28.7 28.9 19.3 56 6.1 ENE 17 26 9 14 1014.6 1014.6 0.0
23/12:00pm 28.4 29.0 18.5 55 6.3 NE 13 20 7 11 1014.9 1014.9 0.0
23/11:30am 27.0 26.9 17.8 57 5.8 ENE 15 24 8 13 1015.1 1015.1 0.0
23/11:00am 26.2 26.1 17.8 60 5.3 NE 15 22 8 12 1015.4 1015.4 0.0
23/10:30am 25.2 25.3 17.4 62 4.9 NE 13 20 7 11 1015.6 1015.6 0.0
23/10:00am 24.9 25.0 17.4 63 4.7 E 13 17 7 9 1015.8 1015.8 0.0
23/09:30am 23.9 26.4 17.2 66 4.1 CALM 0 0 0 0 1015.8 1015.8 0.0
23/09:00am 22.0 24.5 17.2 74 2.9 CALM 0 0 0 0 1015.9 1015.9 0.0
23/08:30am 20.0 22.8 18.0 88 1.2 CALM 0 0 0 0 1015.5 1015.5 0.0
23/08:00am 18.1 20.7 17.5 96 0.4 CALM 0 0 0 0 1015.6 1015.6 0.0
23/07:30am 16.2 18.0 15.4 95 0.5 CALM 0 0 0 0 1015.5 1015.5 0.0
23/07:00am 15.5 17.0 14.7 95 0.5 CALM 0 0 0 0 1015.2 1015.2 0.0
23/06:30am 15.1 16.4 14.0 93 0.6 CALM 0 0 0 0 1015.1 1015.1 0.0
23/06:00am 15.3 15.9 14.2 93 0.6 SSW 4 9 2 5 1015.0 1015.0 0.0
23/05:30am 15.1 16.3 13.8 92 0.7 CALM 0 0 0 0 1014.7 1014.7 0.0
23/05:00am 15.6 17.0 14.3 92 0.7 CALM 0 0 0 0 1014.7 1014.7 0.0
23/04:30am 15.8 17.2 14.5 92 0.7 CALM 0 0 0 0 1014.6 1014.6 0.0
23/04:00am 16.4 18.1 15.1 92 0.8 CALM 0 0 0 0 1014.6 1014.6 0.0
23/03:30am 16.7 18.4 15.1 90 0.9 CALM 0 0 0 0 1014.7 1014.7 0.0
23/03:00am 16.9 18.5 14.9 88 1.2 CALM 0 0 0 0 1014.9 1014.9 0.0
23/02:30am 17.7 19.5 15.5 87 1.3 CALM 0 0 0 0 1015.2 1015.2 0.0
23/02:00am 18.7 19.9 15.9 84 1.7 N 4 7 2 4 1015.2 1015.2 0.0
23/01:30am 20.2 21.0 17.2 83 1.8 NNW 9 13 5 7 1015.5 1015.5 0.0
23/01:00am 21.3 21.4 17.5 79 2.3 NNW 13 20 7 11 1015.6 1015.6 0.0
23/12:30am 19.3 20.7 17.4 89 1.2 NNW 6 11 3 6 1015.7 1015.7 0.0
23/12:00am 19.1 21.2 16.3 84 1.7 CALM 0 0 0 0 1016.3 1016.3 0.0
 
Date/Time
EDT
Temp
°C
App
Temp
°C
Dew
Point
°C
Rel
Hum
%
Delta-T
°C
Wind Press
QNH
hPa
Press
MSL
hPa
Rain since
9am
mm
Dir  Spd
km/h
Gust
km/h
Spd
kts
Gust
kts
22/11:30pm 19.8 21.8 16.1 79 2.2 CALM 0 0 0 0 1016.5 1016.5 0.0
22/11:00pm 21.3 23.3 16.9 76 2.7 N 2 9 1 5 1016.5 1016.5 0.0
22/10:30pm 22.4 23.8 17.8 75 2.9 N 7 11 4 6 1016.4 1016.4 0.0
22/10:00pm 22.7 24.1 17.8 74 3.0 NNE 7 15 4 8 1016.3 1016.3 0.0
22/09:30pm 23.1 23.8 18.0 73 3.2 NNE 11 20 6 11 1015.9 1015.9 0.0
22/09:00pm 23.3 23.0 18.2 73 3.2 NNE 17 30 9 16 1015.5 1015.5 0.0
22/08:30pm 23.5 23.8 17.9 71 3.5 NNE 13 24 7 13 1015.1 1015.1 0.0
22/08:00pm 23.9 23.5 18.1 70 3.6 NNE 17 32 9 17 1014.7 1014.7 0.0
22/07:30pm 23.9 24.0 18.3 71 3.5 NE 15 26 8 14 1014.5 1014.5 0.0
22/07:00pm 24.4 24.0 18.1 68 4.0 NE 17 28 9 15 1014.3 1014.3 0.0
22/06:30pm 24.9 24.1 17.9 65 4.4 NNE 19 32 10 17 1013.8 1013.8 0.0
22/06:00pm 25.2 23.2 17.4 62 4.9 NNE 24 44 13 24 1013.6 1013.6 0.0

Other Formats:

Comma delimited format used in spreadsheet applications
http://www.bom.gov.au/fwo/IDN60801/IDN60801.95929.axf

JavaScript Object Notation format (JSON) in row-major order
http://www.bom.gov.au/fwo/IDN60801/IDN60801.95929.json